Latest Coastal Weather Observations for Horn Island

IDQ60701

Issued at 4:35 am EST Tuesday 29 July 2014 (issued every 10 minutes, with the page automatically refreshed every 10 minutes)

About coastal observations | Map of coastal stations | Coastal observations for QLD | Marine services | Other Formats
Station Details ID: 027058 Name: HORN ISLAND Lat: -10.58 Lon: 142.29 Height: 4.0 m
Data from the previous 72 hours. | See also: Recent months at Horn Island
Date/Time
EST
Temp

°C
Wind Pressure Rain
since 9am
mm
Weather Cloud Vis
km
Sea
Height
m
Swell
Dir
 
Speed
knots
Gust
knots
hPa Trend Height
m
Period
s
Dir
29/04:30am 24.0 SE 12 16 1013.8 - 0.4 - Partly cloudy 10 - - - -
29/04:00am 23.9 SE 11 16 1013.7 - 0.4 - Partly cloudy 10 - - - -
29/03:30am 23.9 SE 12 16 1013.6 - 0.4 - Partly cloudy 10 - - - -
29/03:00am 24.1 SE 14 19 1013.6 - 0.4 - Mostly cloudy 10 - - - -
29/02:30am 24.2 SE 12 17 1013.8 - 0.4 - Partly cloudy 10 - - - -
29/02:00am 23.9 SE 12 18 1014.0 - 0.4 - Partly cloudy 10 - - - -
29/01:30am 23.9 SE 12 17 1014.3 - 0.4 - Partly cloudy 10 - - - -
29/01:00am 24.0 SE 13 18 1014.6 - 0.4 - - 10 - - - -
29/12:30am 24.1 SE 12 18 1014.7 - 0.4 - Partly cloudy 10 - - - -
29/12:00am 24.1 SE 14 21 1014.9 - 0.4 - Mostly clear 10 - - - -
 
Date/Time
EST
Temp

°C
Wind Pressure Rain
since 9am
mm
Weather Cloud Vis
km
Sea
Height
m
Swell
Dir
 
Speed
knots
Gust
knots
hPa Trend Height
m
Period
s
Dir
28/11:30pm 24.1 SE 11 16 1015.0 - 0.4 - Partly cloudy 10 - - - -
28/11:00pm 24.2 SE 11 16 1015.2 - 0.4 - Partly cloudy 10 - - - -
28/10:30pm 24.5 SE 14 22 1015.3 - 0.4 - Partly cloudy 10 - - - -
28/10:00pm 24.5 SE 11 17 1015.3 - 0.4 - Cloudy 10 - - - -
28/09:30pm 24.3 SE 9 14 1015.1 - 0.4 - Partly cloudy 10 - - - -
28/09:00pm 23.9 SSE 10 12 1015.1 - 0.4 - Cloudy 10 - - - -
28/08:30pm 23.6 SSE 9 15 1014.7 - 0.4 - Partly cloudy 10 - - - -
28/08:00pm 23.3 SE 10 16 1014.6 - 0.4 - Partly cloudy 10 - - - -
28/07:30pm 23.3 SSE 13 19 1014.3 - 0.4 - Partly cloudy 10 - - - -
28/07:04pm 22.5 SE 13 18 1014.0 - 0.4 - Partly cloudy 10 - - - -
28/07:00pm 22.3 SE 14 18 1014.1 - 0.4 - Partly cloudy 10 - - - -
28/06:36pm 22.4 ESE 15 26 1014.1 - 0.4 - Partly cloudy 5 - - - -
28/06:30pm 23.5 SE 12 18 1013.9 - 0.4 - Partly cloudy 10 - - - -
28/06:01pm 23.3 SE 11 15 1013.7 - 0.4 - Partly cloudy 10 - - - -
28/06:00pm 23.3 SE 11 15 1013.7 - 0.4 - Cloudy 10 - - - -
28/05:53pm 23.3 SE 11 16 1013.7 - 0.4 - Partly cloudy 9 - - - -
28/05:44pm 23.9 SE 13 19 1013.7 - 0.2 - Partly cloudy 5 - - - -
28/05:43pm 24.2 SE 13 19 1013.7 - 0.2 - Partly cloudy 6 - - - -
28/05:30pm 24.8 SE 14 21 1013.5 - 0.0 - Partly cloudy 10 - - - -
28/05:00pm 24.7 SE 11 17 1013.3 - 0.0 - Partly cloudy 10 - - - -
28/04:30pm 23.8 SE 13 18 1013.2 - 0.0 - Partly cloudy 10 - - - -
28/04:26pm 23.7 SE 14 19 1013.1 - 0.0 - Partly cloudy 10 - - - -
28/04:00pm 24.1 ESE 19 27 1013.2 - 0.0 - Partly cloudy 5 - - - -
28/03:59pm 24.2 ESE 19 27 1013.2 - 0.0 - Partly cloudy 5 - - - -
28/03:30pm 26.1 ESE 14 19 1013.0 - 0.0 - Partly cloudy 10 - - - -
28/03:10pm 26.2 SE 19 29 1013.1 - 0.0 - Partly cloudy 10 - - - -
28/03:00pm 27.5 ESE 15 22 1013.0 - 0.0 - Mostly clear 10 - - - -
28/02:30pm 28.0 ESE 16 21 1013.1 - 0.0 - Partly cloudy 10 - - - -
28/02:00pm 27.2 ESE 19 25 1013.5 - 0.0 - Cloudy 10 - - - -
28/01:30pm 27.1 ESE 17 23 1013.9 - 0.0 - Partly cloudy 10 - - - -
28/01:00pm 26.9 ESE 16 21 1014.4 - 0.0 - Partly cloudy 10 - - - -
28/12:30pm 27.2 ESE 18 23 1014.7 - 0.0 - Partly cloudy 10 - - - -
28/12:00pm 28.1 ESE 17 22 1015.0 - 0.0 - Cloudy 10 - - - -
28/11:30am 27.1 ESE 18 23 1015.4 - 0.0 - Partly cloudy 10 - - - -
28/11:00am 26.8 ESE 18 23 1015.6 - 0.0 - Partly cloudy 10 - - - -
28/10:30am 27.2 ESE 16 22 1015.7 - 0.0 - Partly cloudy - - - - -
28/10:00am 26.7 ESE 16 22 1015.7 - 0.0 - Partly cloudy - - - - -
28/09:30am 26.4 ESE 16 22 1015.7 - 0.0 - Partly cloudy - - - - -
28/09:00am 25.9 ESE 16 22 1015.7 - 0.4 - Mostly clear 10 - - - -
28/08:30am 25.2 ESE 14 18 1015.6 - 0.4 - Partly cloudy 10 - - - -
28/08:00am 24.8 ESE 14 21 1015.3 - 0.4 - Partly cloudy 10 - - - -
28/07:30am 24.1 SE 9 13 1015.0 - 0.4 - Partly cloudy 10 - - - -
28/07:00am 23.5 SE 7 10 1014.5 - 0.4 - Partly cloudy 10 - - - -
28/06:30am 23.4 SE 9 12 1014.3 - 0.4 - Partly cloudy 10 - - - -
28/06:00am 23.5 ESE 12 18 1014.1 - 0.4 - Mostly cloudy 10 - - - -
28/05:30am 23.5 SE 14 19 1013.9 - 0.4 - Partly cloudy 7 - - - -
28/05:00am 24.3 SE 12 15 1013.6 - 0.4 - Partly cloudy 10 - - - -
28/04:30am 24.3 SE 13 21 1013.6 - 0.4 - Partly cloudy 10 - - - -
28/04:00am 24.1 SE 13 19 1013.4 - 0.4 - Partly cloudy 10 - - - -
28/03:30am 24.1 SE 12 16 1013.5 - 0.4 - Partly cloudy 10 - - - -
28/03:00am 24.0 SE 12 18 1013.6 - 0.4 - Cloudy 10 - - - -
28/02:30am 24.0 SE 11 16 1013.8 - 0.4 - Partly cloudy 10 - - - -
28/02:00am 24.2 ESE 13 21 1013.9 - 0.4 - Partly cloudy 10 - - - -
28/01:30am 24.3 ESE 16 22 1014.2 - 0.4 - Partly cloudy 10 - - - -
28/01:00am 24.3 ESE 16 23 1014.6 - 0.4 - Partly cloudy 10 - - - -
28/12:30am 24.4 SE 15 24 1015.0 - 0.4 - Partly cloudy 10 - - - -
28/12:00am 24.3 SE 12 16 1015.3 - 0.4 - Cloudy 10 - - - -
 
Date/Time
EST
Temp

°C
Wind Pressure Rain
since 9am
mm
Weather Cloud Vis
km
Sea
Height
m
Swell
Dir
 
Speed
knots
Gust
knots
hPa Trend Height
m
Period
s
Dir
27/11:30pm 24.1 SE 10 14 1015.6 - 0.4 - Partly cloudy 10 - - - -
27/11:00pm 24.1 SSE 11 18 1015.9 - 0.4 - Partly cloudy 10 - - - -
27/10:30pm 24.3 SE 13 19 1016.2 - 0.4 - Partly cloudy 10 - - - -
27/10:00pm 24.5 SE 14 21 1016.3 - 0.4 - Partly cloudy 10 - - - -
27/09:30pm 24.6 SE 14 21 1016.1 - 0.4 - Partly cloudy 10 - - - -
27/09:00pm 24.4 SE 12 19 1015.9 - 0.4 - Cloudy 10 - - - -
27/08:30pm 24.2 SE 13 18 1015.9 - 0.4 - Partly cloudy 10 - - - -
27/08:00pm 24.2 ESE 16 25 1015.6 - 0.4 - Partly cloudy 10 - - - -
27/07:30pm 24.0 SE 14 19 1015.2 - 0.4 - Partly cloudy 10 - - - -
27/07:00pm 23.7 SE 13 18 1014.9 - 0.4 - Partly cloudy 10 - - - -
27/06:30pm 23.6 SE 12 17 1014.6 - 0.4 - Partly cloudy 10 - - - -
27/06:21pm 23.7 SE 12 18 1014.5 - 0.4 - Partly cloudy 10 - - - -
27/06:11pm 23.8 SE 12 16 1014.4 - 0.4 - Partly cloudy 10 - - - -
27/06:07pm 23.7 SE 12 18 1014.3 - 0.4 - Partly cloudy 10 - - - -
27/06:00pm 23.7 SE 13 19 1014.3 - 0.4 - Cloudy 5 - - - -
27/05:52pm 23.8 ESE 17 27 1014.2 - 0.4 - Partly cloudy 4 - - - -
27/05:50pm 24.0 ESE 18 27 1014.2 - 0.2 - Partly cloudy 5 - - - -
27/05:46pm 24.6 ESE 17 27 1014.0 - 0.2 - Partly cloudy 10 - - - -
27/05:30pm 25.3 SE 15 21 1013.7 - 0.2 - Partly cloudy 10 - - - -
27/05:00pm 26.0 ESE 16 22 1013.4 - 0.2 - Partly cloudy 10 - - - -
27/04:30pm 26.3 ESE 16 24 1013.1 - 0.2 - Partly cloudy 10 - - - -
27/04:00pm 26.5 ESE 15 25 1012.9 - 0.2 - Partly cloudy 10 - - - -
27/03:52pm 26.0 SE 15 25 1012.9 - 0.2 - Partly cloudy 10 - - - -
27/03:30pm 27.1 ESE 19 25 1013.0 - 0.2 - Partly cloudy 10 - - - -
27/03:00pm 26.8 ESE 16 24 1013.2 - 0.2 - Cloudy 10 - - - -
27/02:30pm 26.4 ESE 18 24 1013.3 - 0.2 - Partly cloudy - - - - -
27/02:00pm 26.9 SE 15 21 1013.8 - 0.2 - Partly cloudy 10 - - - -
27/01:30pm 24.9 ESE 17 24 1014.3 - 0.2 - Partly cloudy 10 - - - -
27/01:00pm 26.4 ESE 14 19 1014.4 - 0.2 - Partly cloudy 8 - - - -
27/12:30pm 27.8 ESE 17 21 1014.6 - 0.0 - Partly cloudy - - - - -
27/12:00pm 27.3 ESE 16 22 1014.9 - 0.0 - Mostly clear - - - - -
27/11:30am 27.2 ESE 17 23 1015.2 - 0.0 - Partly cloudy - - - - -
27/11:00am 26.9 ESE 17 22 1015.4 - 0.0 - Partly cloudy - - - - -
27/10:30am 26.9 SE 15 22 1015.5 - 0.0 - Partly cloudy - - - - -
27/10:00am 26.0 SE 14 19 1015.8 - 0.0 - Partly cloudy 10 - - - -
27/09:45am 26.1 SE 14 19 1015.9 - 0.0 - Partly cloudy 10 - - - -
27/09:30am 25.7 SE 13 17 1015.7 - 0.0 - Partly cloudy 10 - - - -
27/09:09am 25.0 SSE 11 16 1015.7 - 0.0 - Partly cloudy 10 - - - -
27/09:00am 24.6 SE 12 15 1015.6 - 1.8 - Mostly clear 10 - - - -
27/08:56am 24.5 SE 11 15 1015.7 - 1.8 - Partly cloudy 10 - - - -
27/08:30am 23.9 SSE 9 13 1015.7 - 1.8 - Cloudy 10 - - - -
27/08:10am 24.1 SE 8 12 1015.7 - 1.8 - Partly cloudy 10 - - - -
27/08:00am 23.7 SE 9 12 1015.6 - 1.8 - Partly cloudy 10 - - - -
27/07:41am 23.2 SE 8 11 1015.4 - 1.8 - Partly cloudy 10 - - - -
27/07:38am 23.2 SE 9 13 1015.4 - 1.8 - Partly cloudy 10 - - - -
27/07:30am 23.0 ESE 13 21 1015.4 - 1.8 - Partly cloudy 4 - - - -
27/07:20am 22.9 SE 18 24 1015.4 - 1.8 - Partly cloudy 5 - - - -
27/07:00am 23.2 SSE 7 10 1015.1 - 1.4 - Partly cloudy 10 - - - -
27/06:53am 23.3 SE 8 11 1015.0 - 1.4 - Partly cloudy 10 - - - -
27/06:48am 23.4 SE 9 13 1015.0 - 1.4 - Partly cloudy 10 - - - -
27/06:33am 23.3 SE 9 14 1015.0 - 1.4 - Partly cloudy 10 - - - -
27/06:30am 23.3 SE 10 14 1015.0 - 1.4 - Partly cloudy 10 - - - -
27/06:00am 23.1 SE 11 17 1014.6 - 1.4 - Mostly cloudy 10 - - - -
27/05:56am 23.1 SE 10 17 1014.7 - 1.4 - Partly cloudy 10 - - - -
27/05:30am 23.3 SE 10 14 1014.7 - 1.4 - Cloudy 10 - - - -
27/05:00am 23.2 SE 10 16 1014.6 - 1.4 - Partly cloudy 10 - - - -
27/04:30am 23.0 SE 8 13 1014.6 - 1.4 - Partly cloudy 9 - - - -
27/04:22am 23.0 SE 7 10 1014.5 - 1.4 - Partly cloudy 10 - - - -
27/04:00am 22.8 SE 10 13 1014.4 - 1.4 - Partly cloudy 10 - - - -
27/03:57am 22.8 SE 10 15 1014.4 - 1.4 - Partly cloudy 10 - - - -
27/03:49am 22.8 SE 13 21 1014.6 - 1.4 - Partly cloudy 10 - - - -
27/03:30am 23.0 SE 11 16 1014.8 - 1.4 - Partly cloudy 4 - - - -
27/03:22am 23.0 SSE 9 13 1014.8 - 1.2 - Partly cloudy 5 - - - -
27/03:00am 23.1 SE 10 16 1014.9 - 0.8 - Cloudy 10 - - - -
27/02:48am 22.9 SE 8 12 1015.0 - 0.8 - Partly cloudy 10 - - - -
27/02:30am 22.6 SE 10 15 1015.0 - 0.8 - Partly cloudy 10 - - - -
27/02:27am 22.6 SE 11 16 1015.1 - 0.8 - Partly cloudy 10 - - - -
27/02:26am 22.6 SE 11 16 1015.1 - 0.8 - Partly cloudy 10 - - - -
27/02:13am 22.6 SE 15 23 1015.3 - 0.8 - Partly cloudy 5 - - - -
27/02:11am 22.7 SE 14 23 1015.4 - 0.8 - Partly cloudy 6 - - - -
27/02:00am 22.9 SE 11 16 1015.4 - 0.8 - Partly cloudy 5 - - - -
27/01:50am 22.9 SE 9 13 1015.6 - 0.6 - Partly cloudy 4 - - - -
27/01:47am 22.9 SE 8 13 1015.6 - 0.6 - Partly cloudy 5 - - - -
27/01:30am 22.7 SE 7 11 1015.6 - 0.6 - Partly cloudy 10 - - - -
27/01:13am 22.6 SE 10 16 1015.8 - 0.6 - Partly cloudy 10 - - - -
27/01:09am 22.5 SE 11 18 1015.8 - 0.6 - Partly cloudy 10 - - - -
27/01:00am 22.6 SE 14 22 1016.0 - 0.6 - Partly cloudy 4 - - - -
27/12:48am 23.1 ESE 15 28 1016.2 - 0.6 - Partly cloudy 4 - - - -
27/12:45am 23.8 ESE 12 23 1016.2 - 0.4 - Partly cloudy 5 - - - -
27/12:30am 24.3 SE 11 15 1016.1 - 0.0 - Partly cloudy 10 - - - -
27/12:00am 24.1 SE 13 18 1016.4 - 0.0 - Cloudy 10 - - - -
 
Date/Time
EST
Temp

°C
Wind Pressure Rain
since 9am
mm
Weather Cloud Vis
km
Sea
Height
m
Swell
Dir
 
Speed
knots
Gust
knots
hPa Trend Height
m
Period
s
Dir
26/11:30pm 23.8 SE 13 18 1016.6 - 0.0 - Partly cloudy 10 - - - -
26/11:00pm 23.9 SE 15 21 1016.7 - 0.0 - Partly cloudy 10 - - - -
26/10:30pm 24.3 SE 13 18 1017.0 - 0.0 - Partly cloudy 10 - - - -
26/10:00pm 24.1 SE 17 23 1016.9 - 0.0 - Partly cloudy 10 - - - -
26/09:30pm 24.5 SE 17 24 1017.0 - 0.0 - Cloudy 10 - - - -
26/09:00pm 24.7 SE 15 21 1016.7 - 0.0 - Cloudy 10 - - - -
26/08:30pm 24.5 SE 12 18 1016.7 - 0.0 - Partly cloudy 10 - - - -
26/08:00pm 24.3 SE 11 17 1016.6 - 0.0 - Partly cloudy 10 - - - -
26/07:30pm 24.5 SE 12 21 1016.4 - 0.0 - Partly cloudy 10 - - - -
26/07:00pm 24.4 SE 12 17 1016.3 - 0.0 - Partly cloudy 10 - - - -
26/06:30pm 24.1 SE 11 17 1016.1 - 0.0 - Partly cloudy 10 - - - -
26/06:06pm 25.0 ESE 17 27 1015.8 - 0.0 - Partly cloudy 10 - - - -
26/06:00pm 25.3 SE 16 22 1015.7 - 0.0 - Cloudy 10 - - - -
26/05:55pm 25.4 SE 16 26 1015.7 - 0.0 - Partly cloudy 10 - - - -
26/05:30pm 25.6 SE 16 23 1015.5 - 0.0 - Partly cloudy 10 - - - -
26/05:00pm 26.0 ESE 18 25 1015.3 - 0.0 - Partly cloudy 10 - - - -
26/04:30pm 26.9 ESE 19 29 1015.0 - 0.0 - Partly cloudy 10 - - - -
26/04:25pm 26.5 ESE 19 29 1015.0 - 0.0 - Partly cloudy 10 - - - -
26/04:00pm 27.5 ESE 17 24 1015.0 - 0.0 - Partly cloudy 10 - - - -
26/03:30pm 27.3 ESE 17 22 1014.7 - 0.0 - - 10 - - - -
26/03:00pm 27.7 ESE 18 25 1014.7 - 0.0 - - 10 - - - -
26/02:30pm 28.1 ESE 18 25 1014.9 - 0.0 - Partly cloudy 10 - - - -
26/02:00pm 28.3 ESE 17 25 1015.3 - 0.0 - Partly cloudy 10 - - - -
26/01:30pm 27.6 ESE 15 20 1015.5 - 0.0 - Partly cloudy 10 - - - -
26/01:00pm 26.8 SE 15 22 1016.2 - 0.0 - Partly cloudy 10 - - - -
26/12:38pm 24.4 SE 18 26 1016.4 - 0.0 - Partly cloudy 10 - - - -
26/12:30pm 24.5 ESE 22 30 1016.6 - 0.0 - Partly cloudy 10 - - - -
26/12:18pm 25.5 ESE 21 31 1016.5 - 0.0 - Partly cloudy 10 - - - -
26/12:00pm 26.2 ESE 17 23 1016.4 - 0.0 - Partly cloudy 10 - - - -
26/11:30am 27.0 ESE 18 24 1016.7 - 0.0 - Partly cloudy - - - - -
26/11:00am 26.2 ESE 17 25 1017.0 - 0.0 - Partly cloudy 10 - - - -
26/10:49am 25.7 ESE 16 22 1017.1 - 0.0 - Partly cloudy 10 - - - -
26/10:33am 23.7 ESE 18 28 1017.4 - 0.0 - Partly cloudy 5 - - - -
26/10:30am 24.6 ESE 18 28 1017.4 - 0.0 - Partly cloudy - - - - -
26/10:28am 26.1 ESE 17 27 1017.2 - 0.0 - Partly cloudy - - - - -
26/10:00am 24.7 ESE 16 22 1017.3 - 0.0 - Partly cloudy 10 - - - -
26/09:37am 25.4 ESE 17 29 1017.2 - 0.0 - Partly cloudy 10 - - - -
26/09:30am 25.8 ESE 16 21 1017.1 - 0.0 - Partly cloudy 10 - - - -
26/09:00am 24.2 ESE 13 18 1017.2 - 0.6 - Cloudy 10 - - - -
26/08:30am 23.3 SSE 9 17 1017.1 - 0.6 - Partly cloudy 10 - - - -
26/08:17am 23.3 SE 8 11 1016.7 - 0.6 - Partly cloudy 10 - - - -
26/08:00am 23.1 SSE 8 11 1016.5 - 0.4 - Partly cloudy 4 - - - -
26/07:57am 23.2 SSE 8 11 1016.5 - 0.4 - Partly cloudy 5 - - - -
26/07:30am 23.3 SSE 8 11 1016.2 - 0.4 - Partly cloudy 10 - - - -
26/07:00am 23.2 SSE 9 11 1016.0 - 0.4 - - 10 - - - -
26/06:30am 23.3 SE 10 13 1015.7 - 0.4 - - 10 - - - -
26/06:00am 23.7 SE 12 17 1015.6 - 0.4 - - 10 - - - -
26/05:30am 23.6 SE 12 16 1015.5 - 0.4 - Partly cloudy 10 - - - -
26/05:00am 23.6 ESE 13 18 1015.6 - 0.4 - - 10 - - - -

Other Formats:

Comma delimited format used in spreadsheet applications
http://www.bom.gov.au/fwo/IDQ60701/IDQ60701.94174.axf

JavaScript Object Notation format (JSON) in row-major order
http://www.bom.gov.au/fwo/IDQ60701/IDQ60701.94174.json